createdAt,value
2022-11-17T00:00:42.201Z,99616.25
2022-11-17T00:03:16.232Z,99616.66
2022-11-17T00:05:44.689Z,99617.03
2022-11-17T00:08:12.283Z,99605.59
2022-11-17T00:10:39.685Z,99608.88
2022-11-17T00:13:25.559Z,99612.47
2022-11-17T00:15:52.921Z,99614.25
2022-11-17T00:18:38.778Z,99620.94
2022-11-17T00:21:21.707Z,99609.53
2022-11-17T00:23:52.231Z,99610.81
2022-11-17T00:26:22.224Z,99612.03
2022-11-17T00:28:54.609Z,99617.81
2022-11-17T00:31:42.204Z,99607.41
2022-11-17T00:34:18.105Z,99588.25
2022-11-17T00:36:47.458Z,99585.06
2022-11-17T00:39:16.910Z,99593.97
2022-11-17T00:41:44.311Z,99602.63
2022-11-17T00:44:12.414Z,99606.09
2022-11-17T00:46:40.072Z,99604.31
2022-11-17T00:49:08.920Z,99612.31
2022-11-17T00:51:36.884Z,99612.91
2022-11-17T00:54:05.253Z,99609.75
2022-11-17T00:56:33.671Z,99608.25
2022-11-17T00:59:01.193Z,99599.09
2022-11-17T01:01:30.132Z,99591.84
2022-11-17T01:04:05.485Z,99600.13
2022-11-17T01:06:38.695Z,99602.84
2022-11-17T01:09:12.174Z,99600.91
2022-11-17T01:11:40.176Z,99593.25
2022-11-17T01:14:11.205Z,99586.22
2022-11-17T01:16:38.639Z,99596.63
2022-11-17T01:19:06.152Z,99599.53
2022-11-17T01:21:33.595Z,99609.06
2022-11-17T01:24:02.038Z,99617.19
2022-11-17T01:26:34.565Z,99608.75
2022-11-17T01:29:04.015Z,99607.59
2022-11-17T01:31:37.011Z,99610.22
2022-11-17T01:34:04.461Z,99596.06
2022-11-17T01:36:57.429Z,99614.69
2022-11-17T01:39:26.784Z,99611.72
2022-11-17T01:41:55.067Z,99603.69
2022-11-17T01:44:50.166Z,99607.69
2022-11-17T01:47:35.320Z,99603.69
2022-11-17T01:50:30.046Z,99613.56
2022-11-17T01:53:05.247Z,99611.91
2022-11-17T01:55:48.683Z,99615.16
2022-11-17T01:58:24.583Z,99621.09
2022-11-17T02:00:54.267Z,99605.75
2022-11-17T02:03:22.755Z,99602.13
2022-11-17T02:06:08.649Z,99609.97
2022-11-17T02:08:38.740Z,99603.25
2022-11-17T02:11:11.752Z,99609.13
2022-11-17T02:13:40.829Z,99608.03
2022-11-17T02:16:13.157Z,99619.19
2022-11-17T02:18:42.342Z,99617.66
2022-11-17T02:21:28.411Z,99621.31
2022-11-17T02:24:20.641Z,99618.81
2022-11-17T02:27:13.152Z,99618.16
2022-11-17T02:30:02.669Z,99630.19
2022-11-17T02:32:42.330Z,99635.72
2022-11-17T02:35:19.943Z,99631.63
2022-11-17T02:38:09.256Z,99628.38
2022-11-17T02:40:52.793Z,99619.25
2022-11-17T02:43:43.241Z,99616.81
2022-11-17T02:46:16.839Z,99620.19
2022-11-17T02:49:24.679Z,99617.88
2022-11-17T02:51:55.452Z,99604.31
2022-11-17T02:54:25.448Z,99601.59
2022-11-17T02:56:52.903Z,99597.47
2022-11-17T02:59:25.739Z,99587.28
2022-11-17T03:02:24.131Z,99597.97
2022-11-17T03:05:06.657Z,99599.50
2022-11-17T03:08:00.637Z,99588.66
2022-11-17T03:10:33.900Z,99576.84
2022-11-17T03:13:26.053Z,99572.94
2022-11-17T03:15:59.752Z,99581.53
2022-11-17T03:18:37.305Z,99580.22
2022-11-17T03:21:16.449Z,99576.38
2022-11-17T03:24:16.137Z,99578.75
2022-11-17T03:26:50.314Z,99572.09
2022-11-17T03:29:21.462Z,99570.47
2022-11-17T03:31:50.406Z,99579.59
2022-11-17T03:34:22.956Z,99585.31
2022-11-17T03:36:55.760Z,99586.28
2022-11-17T03:39:30.482Z,99587.69
2022-11-17T03:42:04.755Z,99592.44
2022-11-17T03:44:35.100Z,99594.28
2022-11-17T03:47:05.038Z,99584.13
2022-11-17T03:49:38.174Z,99590.91
2022-11-17T03:52:08.948Z,99591.63
2022-11-17T03:54:36.994Z,99589.38
2022-11-17T03:57:36.728Z,99592.41
2022-11-17T04:00:08.300Z,99581.53
2022-11-17T04:02:43.283Z,99573.69
2022-11-17T04:05:13.143Z,99572.56
2022-11-17T04:07:43.974Z,99562.66
2022-11-17T04:10:13.971Z,99565.88
2022-11-17T04:13:01.573Z,99567.38
2022-11-17T04:15:47.320Z,99586.72
2022-11-17T04:18:15.337Z,99578.97
2022-11-17T04:20:43.209Z,99586.31
2022-11-17T04:23:14.190Z,99593.91
2022-11-17T04:26:03.046Z,99595.19
2022-11-17T04:28:37.861Z,99606.28
2022-11-17T04:31:25.822Z,99611.31
2022-11-17T04:34:06.609Z,99605.91
2022-11-17T04:36:43.416Z,99600.63
2022-11-17T04:39:12.922Z,99614.88
2022-11-17T04:42:05.449Z,99612.00
2022-11-17T04:44:35.451Z,99615.06
2022-11-17T04:47:03.734Z,99623.91
2022-11-17T04:49:32.022Z,99628.72
2022-11-17T04:51:59.497Z,99618.28
2022-11-17T04:54:26.972Z,99621.94
2022-11-17T04:56:55.885Z,99620.31
2022-11-17T04:59:26.117Z,99617.06
2022-11-17T05:01:57.839Z,99610.19
2022-11-17T05:04:47.149Z,99622.63
2022-11-17T05:07:14.581Z,99615.75
2022-11-17T05:09:42.119Z,99599.91
2022-11-17T05:12:27.955Z,99585.69
2022-11-17T05:14:55.370Z,99574.19
2022-11-17T05:17:22.741Z,99578.63
2022-11-17T05:19:50.268Z,99598.84
2022-11-17T05:22:39.821Z,99600.56
2022-11-17T05:25:07.868Z,99608.69
2022-11-17T05:27:35.683Z,99606.78
2022-11-17T05:30:06.013Z,99619.66
2022-11-17T05:32:33.348Z,99604.84
2022-11-17T05:35:00.843Z,99599.00
2022-11-17T05:37:28.190Z,99590.97
2022-11-17T05:39:55.555Z,99593.16
2022-11-17T05:42:22.924Z,99592.81
2022-11-17T05:44:50.245Z,99599.78
2022-11-17T05:47:17.520Z,99590.03
2022-11-17T05:49:44.908Z,99592.69
2022-11-17T05:52:12.292Z,99586.34
2022-11-17T05:54:39.743Z,99585.56
2022-11-17T05:57:13.095Z,99587.03
2022-11-17T05:59:53.132Z,99584.56
2022-11-17T06:02:27.772Z,99591.09
2022-11-17T06:04:55.166Z,99599.44
2022-11-17T06:07:23.138Z,99607.38
2022-11-17T06:09:52.119Z,99599.47
2022-11-17T06:12:19.487Z,99603.81
2022-11-17T06:14:46.867Z,99597.56
2022-11-17T06:17:23.193Z,99604.84
2022-11-17T06:20:08.582Z,99594.66
2022-11-17T06:22:36.381Z,99588.25
2022-11-17T06:25:05.097Z,99590.13
2022-11-17T06:27:33.154Z,99593.63
2022-11-17T06:30:06.557Z,99588.34
2022-11-17T06:32:36.678Z,99596.19
2022-11-17T06:35:07.822Z,99589.78
2022-11-17T06:37:35.219Z,99587.00
2022-11-17T06:40:03.642Z,99597.44
2022-11-17T06:42:49.457Z,99599.16
2022-11-17T06:45:16.895Z,99590.78
2022-11-17T06:47:47.163Z,99574.59
2022-11-17T06:50:14.566Z,99576.97
2022-11-17T06:52:42.020Z,99584.81
2022-11-17T06:55:09.674Z,99584.19
2022-11-17T06:57:37.234Z,99587.53
2022-11-17T07:00:06.363Z,99577.03
2022-11-17T07:02:33.845Z,99570.28
2022-11-17T07:05:01.289Z,99559.81
2022-11-17T07:07:28.777Z,99559.38
2022-11-17T07:09:56.216Z,99560.66
2022-11-17T07:12:23.573Z,99566.16
2022-11-17T07:14:50.952Z,99574.00
2022-11-17T07:17:18.344Z,99563.25
2022-11-17T07:19:45.701Z,99562.84
2022-11-17T07:22:13.059Z,99570.94
2022-11-17T07:24:40.717Z,99574.91
2022-11-17T07:27:08.330Z,99587.97
2022-11-17T07:29:35.686Z,99574.81
2022-11-17T07:32:03.695Z,99584.28
2022-11-17T07:34:31.006Z,99594.34
2022-11-17T07:37:01.378Z,99598.97
2022-11-17T07:39:28.818Z,99598.28
2022-11-17T07:41:56.199Z,99604.84
2022-11-17T07:44:23.638Z,99610.31
2022-11-17T07:46:51.101Z,99620.13
2022-11-17T07:49:18.433Z,99616.06
2022-11-17T07:51:45.872Z,99609.81
2022-11-17T07:54:13.249Z,99603.47
2022-11-17T07:56:40.778Z,99617.16
2022-11-17T07:59:08.308Z,99622.63
2022-11-17T08:01:36.036Z,99616.75
2022-11-17T08:04:03.498Z,99618.38
2022-11-17T08:06:30.961Z,99613.47
2022-11-17T08:08:58.797Z,99610.59
2022-11-17T08:11:26.085Z,99626.88
2022-11-17T08:13:53.445Z,99625.88
2022-11-17T08:16:20.934Z,99631.53
2022-11-17T08:18:52.116Z,99632.44
2022-11-17T08:21:20.157Z,99634.38
2022-11-17T08:23:52.088Z,99629.75
2022-11-17T08:26:20.973Z,99638.22
2022-11-17T08:28:52.150Z,99636.78
2022-11-17T08:31:22.789Z,99634.84
2022-11-17T08:33:50.243Z,99630.69
2022-11-17T08:36:17.724Z,99636.31
2022-11-17T08:38:45.185Z,99629.19
2022-11-17T08:41:12.820Z,99636.69
2022-11-17T08:43:40.326Z,99635.66
2022-11-17T08:46:12.132Z,99631.47
2022-11-17T08:48:39.861Z,99645.81
2022-11-17T08:51:08.610Z,99641.66
2022-11-17T08:53:35.968Z,99643.72
2022-11-17T08:56:07.880Z,99630.13
2022-11-17T08:58:43.336Z,99644.09
2022-11-17T09:01:12.741Z,99650.13
2022-11-17T09:03:42.781Z,99647.88
2022-11-17T09:06:11.152Z,99648.31
2022-11-17T09:08:45.586Z,99643.50
2022-11-17T09:11:14.583Z,99633.44
2022-11-17T09:13:42.336Z,99640.44
2022-11-17T09:16:11.401Z,99644.72
2022-11-17T09:18:40.121Z,99641.44
2022-11-17T09:21:10.601Z,99639.22
2022-11-17T09:23:38.598Z,99642.38
2022-11-17T09:26:10.475Z,99644.22
2022-11-17T09:28:38.820Z,99637.66
2022-11-17T09:31:17.302Z,99644.84
2022-11-17T09:33:45.832Z,99652.38
2022-11-17T09:36:18.572Z,99650.63
2022-11-17T09:38:48.662Z,99651.44
2022-11-17T09:41:16.081Z,99661.06
2022-11-17T09:43:51.420Z,99667.44
2022-11-17T09:46:27.563Z,99666.69
2022-11-17T09:49:02.921Z,99662.94
2022-11-17T09:51:33.094Z,99674.25
2022-11-17T09:54:13.544Z,99677.41
2022-11-17T09:56:40.907Z,99677.53
2022-11-17T09:59:13.367Z,99680.59
2022-11-17T10:01:41.000Z,99667.81
2022-11-17T10:04:12.768Z,99658.38
2022-11-17T10:06:44.855Z,99664.97
2022-11-17T10:09:24.004Z,99654.41
2022-11-17T10:11:59.674Z,99657.69
2022-11-17T10:14:28.701Z,99651.03
2022-11-17T10:17:00.261Z,99660.88
2022-11-17T10:19:31.269Z,99654.06
2022-11-17T10:22:01.619Z,99658.34
2022-11-17T10:24:42.416Z,99651.47
2022-11-17T10:27:21.925Z,99651.00
2022-11-17T10:30:01.326Z,99642.50
2022-11-17T10:32:32.128Z,99639.69
2022-11-17T10:35:35.632Z,99638.50
2022-11-17T10:38:10.592Z,99634.84
2022-11-17T10:40:40.698Z,99632.50
2022-11-17T10:43:14.272Z,99629.97
2022-11-17T10:45:45.570Z,99623.28
2022-11-17T10:48:28.313Z,99626.56
2022-11-17T10:51:01.019Z,99617.50
2022-11-17T10:53:44.928Z,99613.56
2022-11-17T10:56:24.170Z,99605.84
2022-11-17T10:59:11.431Z,99597.69
2022-11-17T11:01:44.819Z,99595.28
2022-11-17T11:04:39.598Z,99581.25
2022-11-17T11:07:08.990Z,99568.25
2022-11-17T11:09:42.845Z,99574.88
2022-11-17T11:12:15.255Z,99574.53
2022-11-17T11:14:48.913Z,99589.91
2022-11-17T11:17:18.408Z,99592.13
2022-11-17T11:19:53.421Z,99595.00
2022-11-17T11:22:50.001Z,99598.59
2022-11-17T11:25:41.142Z,99586.28
2022-11-17T11:28:20.749Z,99583.13
2022-11-17T11:31:26.664Z,99578.97
2022-11-17T11:34:06.805Z,99580.00
2022-11-17T11:36:54.485Z,99576.38
2022-11-17T11:39:55.547Z,99574.59
2022-11-17T11:42:58.016Z,99575.06
2022-11-17T11:45:35.319Z,99570.59
2022-11-17T11:48:15.424Z,99572.84
2022-11-17T11:50:55.126Z,99565.91
2022-11-17T11:53:29.837Z,99564.38
2022-11-17T11:56:33.050Z,99565.69
2022-11-17T11:59:07.158Z,99563.97
2022-11-17T12:02:14.511Z,99564.09
2022-11-17T12:05:00.421Z,99573.94
2022-11-17T12:07:40.389Z,99579.19
2022-11-17T12:10:39.012Z,99560.97
2022-11-17T12:13:14.942Z,99562.81
2022-11-17T12:15:42.730Z,99561.63
2022-11-17T12:18:22.436Z,99561.56
2022-11-17T12:20:52.797Z,99560.59
2022-11-17T12:23:29.626Z,99564.59
2022-11-17T12:25:59.084Z,99557.81
2022-11-17T12:28:28.312Z,99566.28
2022-11-17T12:30:58.962Z,99568.84
2022-11-17T12:33:54.048Z,99569.84
2022-11-17T12:36:29.768Z,99572.00
2022-11-17T12:39:01.091Z,99564.13
2022-11-17T12:41:47.228Z,99559.75
2022-11-17T12:44:52.169Z,99567.44
2022-11-17T12:47:21.771Z,99567.88
2022-11-17T12:50:10.473Z,99565.56
2022-11-17T12:52:37.914Z,99568.28
2022-11-17T12:55:26.167Z,99561.34
2022-11-17T12:57:58.398Z,99556.66
2022-11-17T13:00:28.744Z,99552.91
2022-11-17T13:03:16.941Z,99561.53
2022-11-17T13:05:44.374Z,99548.75
2022-11-17T13:08:19.938Z,99560.47
2022-11-17T13:10:47.830Z,99569.00
2022-11-17T13:13:23.690Z,99570.00
2022-11-17T13:15:57.005Z,99569.34
2022-11-17T13:18:44.667Z,99574.59
2022-11-17T13:21:29.565Z,99561.47
2022-11-17T13:23:58.992Z,99556.47
2022-11-17T13:26:35.742Z,99560.72
2022-11-17T13:29:07.157Z,99559.50
2022-11-17T13:31:34.747Z,99555.88
2022-11-17T13:34:04.879Z,99549.69
2022-11-17T13:36:33.414Z,99555.38
2022-11-17T13:39:01.219Z,99565.28
2022-11-17T13:41:36.941Z,99560.25
2022-11-17T13:44:06.430Z,99551.78
2022-11-17T13:46:35.297Z,99550.94
2022-11-17T13:49:32.812Z,99553.44
2022-11-17T13:52:01.243Z,99548.66
2022-11-17T13:54:29.108Z,99550.28
2022-11-17T13:57:08.138Z,99549.50
2022-11-17T13:59:38.688Z,99540.47
2022-11-17T14:02:24.604Z,99542.34
2022-11-17T14:05:14.263Z,99543.91
2022-11-17T14:07:42.992Z,99533.38
2022-11-17T14:10:22.602Z,99526.63
2022-11-17T14:12:53.061Z,99532.53
2022-11-17T14:15:38.667Z,99539.94
2022-11-17T14:18:31.544Z,99535.06
2022-11-17T14:21:13.985Z,99540.03
2022-11-17T14:23:43.259Z,99539.59
2022-11-17T14:26:21.226Z,99547.63
2022-11-17T14:28:50.421Z,99543.81
2022-11-17T14:31:18.456Z,99549.06
2022-11-17T14:33:46.178Z,99552.00
2022-11-17T14:36:15.957Z,99552.66
2022-11-17T14:38:44.981Z,99547.88
2022-11-17T14:41:15.643Z,99546.59
2022-11-17T14:43:43.187Z,99545.44
2022-11-17T14:46:26.783Z,99558.75
2022-11-17T14:48:54.462Z,99561.00
2022-11-17T14:51:22.228Z,99563.22
2022-11-17T14:53:50.020Z,99560.41
2022-11-17T14:56:19.609Z,99564.28
2022-11-17T14:58:48.226Z,99563.78
2022-11-17T15:01:18.518Z,99557.91
2022-11-17T15:03:46.824Z,99567.66
2022-11-17T15:06:19.419Z,99576.91
2022-11-17T15:08:52.797Z,99572.94
2022-11-17T15:11:20.222Z,99564.59
2022-11-17T15:13:48.325Z,99563.03
2022-11-17T15:16:16.395Z,99554.50
2022-11-17T15:18:45.566Z,99553.28
2022-11-17T15:21:13.332Z,99548.25
2022-11-17T15:23:41.764Z,99536.41
2022-11-17T15:26:14.251Z,99534.91
2022-11-17T15:28:41.964Z,99554.53
2022-11-17T15:31:14.008Z,99567.75
2022-11-17T15:33:42.021Z,99568.81
2022-11-17T15:36:12.277Z,99568.31
2022-11-17T15:38:40.877Z,99571.13
2022-11-17T15:41:11.048Z,99589.03
2022-11-17T15:43:43.682Z,99588.25
2022-11-17T15:46:15.717Z,99594.34
2022-11-17T15:48:45.688Z,99574.13
2022-11-17T15:51:15.399Z,99576.06
2022-11-17T15:53:44.353Z,99570.19
2022-11-17T15:56:13.200Z,99569.72
2022-11-17T15:58:42.559Z,99568.50
2022-11-17T16:01:15.380Z,99586.50
2022-11-17T16:03:44.785Z,99589.50
2022-11-17T16:06:16.054Z,99576.25
2022-11-17T16:08:43.724Z,99576.59
2022-11-17T16:11:11.625Z,99584.88
2022-11-17T16:13:39.107Z,99582.94
2022-11-17T16:16:13.925Z,99594.09
2022-11-17T16:18:41.339Z,99587.84
2022-11-17T16:21:13.506Z,99594.00
2022-11-17T16:23:49.036Z,99593.19
2022-11-17T16:26:19.389Z,99583.78
2022-11-17T16:28:47.140Z,99585.28
2022-11-17T16:31:23.728Z,99601.53
2022-11-17T16:33:56.522Z,99604.72
2022-11-17T16:36:32.722Z,99605.50
2022-11-17T16:39:04.777Z,99601.81
2022-11-17T16:41:36.845Z,99597.16
2022-11-17T16:44:07.325Z,99603.75
2022-11-17T16:46:34.718Z,99595.03
2022-11-17T16:49:04.771Z,99598.97
2022-11-17T16:51:32.633Z,99601.81
2022-11-17T16:54:02.818Z,99599.44
2022-11-17T16:56:30.895Z,99594.00
2022-11-17T16:58:58.979Z,99599.81
2022-11-17T17:01:30.961Z,99596.25
2022-11-17T17:04:06.409Z,99595.16
2022-11-17T17:06:35.426Z,99593.09
2022-11-17T17:09:05.754Z,99600.84
2022-11-17T17:11:34.561Z,99601.53
2022-11-17T17:14:04.564Z,99602.16
2022-11-17T17:16:33.821Z,99608.41
2022-11-17T17:19:04.403Z,99600.22
2022-11-17T17:21:32.833Z,99599.88
2022-11-17T17:24:00.886Z,99594.16
2022-11-17T17:26:30.418Z,99579.06
2022-11-17T17:29:00.248Z,99583.72
2022-11-17T17:31:34.587Z,99594.53
2022-11-17T17:34:02.377Z,99591.69
2022-11-17T17:36:30.544Z,99604.09
2022-11-17T17:39:01.806Z,99617.00
2022-11-17T17:41:32.110Z,99612.34
2022-11-17T17:44:02.235Z,99594.44
2022-11-17T17:46:33.629Z,99587.41
2022-11-17T17:49:01.503Z,99588.66
2022-11-17T17:51:29.427Z,99595.66
2022-11-17T17:54:00.953Z,99589.84
2022-11-17T17:56:30.473Z,99587.13
2022-11-17T17:58:58.075Z,99579.75
2022-11-17T18:01:30.882Z,99582.38
2022-11-17T18:04:05.840Z,99578.13
2022-11-17T18:06:41.888Z,99592.66
2022-11-17T18:09:10.795Z,99599.53
2022-11-17T18:11:45.647Z,99588.53
2022-11-17T18:14:13.471Z,99590.81
2022-11-17T18:16:41.177Z,99587.31
2022-11-17T18:19:09.550Z,99582.19
2022-11-17T18:21:36.977Z,99574.56
2022-11-17T18:24:04.963Z,99579.94
2022-11-17T18:26:35.313Z,99580.63
2022-11-17T18:29:05.666Z,99576.84
2022-11-17T18:31:35.391Z,99566.84
2022-11-17T18:34:06.422Z,99562.09
2022-11-17T18:36:35.459Z,99574.03
2022-11-17T18:39:03.634Z,99579.59
2022-11-17T18:41:34.096Z,99575.28
2022-11-17T18:44:02.106Z,99564.47
2022-11-17T18:46:31.631Z,99558.25
2022-11-17T18:48:59.861Z,99561.94
2022-11-17T18:51:29.624Z,99556.66
2022-11-17T18:54:01.544Z,99550.06
2022-11-17T18:56:34.514Z,99545.38
2022-11-17T18:59:02.462Z,99529.59
2022-11-17T19:01:30.620Z,99532.41
2022-11-17T19:04:02.459Z,99536.53
2022-11-17T19:06:30.616Z,99547.84
2022-11-17T19:08:59.783Z,99550.00
2022-11-17T19:11:30.195Z,99550.25
2022-11-17T19:13:59.404Z,99556.81
2022-11-17T19:16:30.007Z,99559.38
2022-11-17T19:18:58.050Z,99563.50
2022-11-17T19:21:28.174Z,99549.91
2022-11-17T19:24:00.807Z,99550.31
2022-11-17T19:26:30.522Z,99553.84
2022-11-17T19:29:00.317Z,99559.28
2022-11-17T19:31:28.240Z,99557.28
2022-11-17T19:33:57.058Z,99545.50
2022-11-17T19:36:27.329Z,99547.81
2022-11-17T19:38:56.387Z,99547.88
2022-11-17T19:41:35.281Z,99531.97
2022-11-17T19:44:05.793Z,99533.13
2022-11-17T19:46:34.156Z,99527.22
2022-11-17T19:49:02.056Z,99534.63
2022-11-17T19:51:34.139Z,99535.13
2022-11-17T19:54:02.479Z,99528.00
2022-11-17T19:56:30.011Z,99535.31
2022-11-17T19:58:57.989Z,99523.03
2022-11-17T20:01:27.701Z,99525.22
2022-11-17T20:03:56.642Z,99513.84
2022-11-17T20:06:28.018Z,99521.09
2022-11-17T20:08:57.424Z,99526.03
2022-11-17T20:11:27.045Z,99522.06
2022-11-17T20:13:55.760Z,99503.69
2022-11-17T20:16:27.430Z,99500.28
2022-11-17T20:18:57.300Z,99504.16
2022-11-17T20:21:26.291Z,99509.13
2022-11-17T20:23:54.779Z,99506.69
2022-11-17T20:26:28.054Z,99513.72
2022-11-17T20:28:57.447Z,99500.03
2022-11-17T20:31:27.941Z,99510.75
2022-11-17T20:33:58.222Z,99485.72
2022-11-17T20:36:31.226Z,99483.06
2022-11-17T20:39:00.885Z,99491.84
2022-11-17T20:41:29.181Z,99496.94
2022-11-17T20:43:58.268Z,99490.34
2022-11-17T20:46:26.875Z,99482.91
2022-11-17T20:48:54.568Z,99481.34
2022-11-17T20:51:25.206Z,99480.59
2022-11-17T20:53:52.659Z,99477.38
2022-11-17T20:56:20.181Z,99476.94
2022-11-17T20:58:47.718Z,99490.88
2022-11-17T21:01:17.139Z,99498.00
2022-11-17T21:03:45.592Z,99497.56
2022-11-17T21:06:14.129Z,99493.34
2022-11-17T21:08:43.370Z,99502.31
2022-11-17T21:11:36.224Z,99493.00
2022-11-17T21:14:05.799Z,99492.81
2022-11-17T21:16:34.154Z,99502.47
2022-11-17T21:19:01.630Z,99508.00
2022-11-17T21:21:29.524Z,99507.22
2022-11-17T21:23:56.959Z,99508.16
2022-11-17T21:26:24.610Z,99496.19
2022-11-17T21:28:52.695Z,99504.25
2022-11-17T21:31:25.785Z,99503.75
2022-11-17T21:34:05.245Z,99509.13
2022-11-17T21:36:34.461Z,99492.00
2022-11-17T21:39:02.200Z,99489.81
2022-11-17T21:41:31.992Z,99500.78
2022-11-17T21:44:01.917Z,99495.63
2022-11-17T21:46:31.833Z,99491.31
2022-11-17T21:49:00.302Z,99495.09
2022-11-17T21:51:33.324Z,99477.47
2022-11-17T21:54:03.828Z,99494.31
2022-11-17T21:56:32.083Z,99487.09
2022-11-17T21:59:10.470Z,99492.38
2022-11-17T22:01:38.222Z,99484.22
2022-11-17T22:04:05.906Z,99490.63
2022-11-17T22:06:33.745Z,99488.72
2022-11-17T22:09:01.327Z,99487.56
2022-11-17T22:11:37.522Z,99504.31
2022-11-17T22:14:08.585Z,99490.53
2022-11-17T22:16:44.262Z,99488.97
2022-11-17T22:19:13.269Z,99490.81
2022-11-17T22:21:41.679Z,99496.34
2022-11-17T22:24:10.959Z,99495.09
2022-11-17T22:26:42.406Z,99499.66
2022-11-17T22:29:16.097Z,99486.50
2022-11-17T22:31:45.095Z,99462.84
2022-11-17T22:34:13.442Z,99436.94
2022-11-17T22:36:41.233Z,99451.84
2022-11-17T22:39:09.453Z,99469.53
2022-11-17T22:41:37.210Z,99485.34
2022-11-17T22:44:07.748Z,99473.69
2022-11-17T22:46:36.418Z,99480.56
2022-11-17T22:49:06.473Z,99468.28
2022-11-17T22:51:52.845Z,99457.69
2022-11-17T22:54:20.324Z,99449.44
2022-11-17T22:56:47.817Z,99429.34
2022-11-17T22:59:15.644Z,99416.50
2022-11-17T23:01:43.258Z,99396.31
2022-11-17T23:04:11.505Z,99400.22
2022-11-17T23:06:38.850Z,99416.50
2022-11-17T23:09:06.253Z,99411.13
2022-11-17T23:11:38.305Z,99420.88
2022-11-17T23:14:08.238Z,99417.44
2022-11-17T23:16:39.492Z,99429.84
2022-11-17T23:19:07.281Z,99427.41
2022-11-17T23:21:34.750Z,99418.06
2022-11-17T23:24:02.204Z,99414.56
2022-11-17T23:26:29.621Z,99418.16
2022-11-17T23:28:59.161Z,99416.22
2022-11-17T23:31:27.987Z,99421.16
2022-11-17T23:33:55.403Z,99424.31
2022-11-17T23:36:23.537Z,99413.78
2022-11-17T23:38:51.669Z,99406.13
2022-11-17T23:41:22.316Z,99413.06
2022-11-17T23:43:51.292Z,99413.00
2022-11-17T23:46:21.429Z,99404.47
2022-11-17T23:48:49.052Z,99404.84
2022-11-17T23:51:19.394Z,99410.19
2022-11-17T23:53:47.172Z,99413.69
2022-11-17T23:56:15.580Z,99412.22
2022-11-17T23:58:43.563Z,99416.00
